createdAt,value
2018-11-12T00:01:56.183Z,10.80
2018-11-12T00:04:30.010Z,10.70
2018-11-12T00:07:03.980Z,10.70
2018-11-12T00:09:37.780Z,10.70
2018-11-12T00:12:11.571Z,10.70
2018-11-12T00:14:45.392Z,10.60
2018-11-12T00:17:23.952Z,10.60
2018-11-12T00:19:57.781Z,10.60
2018-11-12T00:22:36.195Z,10.50
2018-11-12T00:25:10.019Z,10.60
2018-11-12T00:27:44.819Z,10.60
2018-11-12T00:30:19.528Z,10.60
2018-11-12T00:32:53.320Z,10.60
2018-11-12T00:35:27.059Z,10.60
2018-11-12T00:38:00.823Z,10.60
2018-11-12T00:40:34.725Z,10.70
2018-11-12T00:43:08.556Z,10.70
2018-11-12T00:45:42.307Z,10.70
2018-11-12T00:48:16.143Z,10.80
2018-11-12T00:50:49.896Z,10.80
2018-11-12T00:53:26.700Z,10.80
2018-11-12T00:56:00.483Z,10.80
2018-11-12T00:58:36.307Z,10.80
2018-11-12T01:01:10.104Z,10.80
2018-11-12T01:03:44.946Z,10.80
2018-11-12T01:06:18.732Z,10.80
2018-11-12T01:08:56.952Z,10.90
2018-11-12T01:11:30.774Z,10.90
2018-11-12T01:14:08.034Z,11.00
2018-11-12T01:16:41.812Z,11.00
2018-11-12T01:19:16.603Z,11.00
2018-11-12T01:21:50.403Z,11.10
2018-11-12T01:24:24.197Z,11.10
2018-11-12T01:26:57.993Z,11.00
2018-11-12T01:29:36.566Z,11.00
2018-11-12T01:32:10.323Z,11.00
2018-11-12T01:34:45.142Z,11.00
2018-11-12T01:37:18.956Z,10.90
2018-11-12T01:39:52.761Z,10.90
2018-11-12T01:42:26.519Z,10.90
2018-11-12T01:45:01.318Z,10.90
2018-11-12T01:47:35.091Z,10.90
2018-11-12T01:50:10.232Z,10.90
2018-11-12T01:52:44.521Z,10.90
2018-11-12T01:55:19.298Z,10.90
2018-11-12T01:57:53.054Z,11.00
2018-11-12T02:00:29.909Z,10.90
2018-11-12T02:03:03.691Z,11.00
2018-11-12T02:05:37.553Z,11.00
2018-11-12T02:08:11.506Z,11.00
2018-11-12T02:10:45.320Z,11.00
2018-11-12T02:13:19.070Z,11.00
2018-11-12T02:15:52.926Z,11.00
2018-11-12T02:18:26.694Z,11.00
2018-11-12T02:21:01.448Z,11.00
2018-11-12T02:23:35.447Z,11.00
2018-11-12T02:26:09.296Z,11.00
2018-11-12T02:28:43.066Z,11.00
2018-11-12T02:31:16.852Z,11.00
2018-11-12T02:33:50.633Z,10.90
2018-11-12T02:36:25.434Z,11.00
2018-11-12T02:38:59.197Z,11.00
2018-11-12T02:41:33.044Z,11.00
2018-11-12T02:44:07.498Z,11.00
2018-11-12T02:46:42.282Z,11.10
2018-11-12T02:49:16.078Z,11.00
2018-11-12T02:51:49.916Z,11.00
2018-11-12T02:54:23.718Z,11.10
2018-11-12T02:56:59.575Z,11.10
2018-11-12T02:59:33.396Z,11.10
2018-11-12T03:02:07.181Z,11.20
2018-11-12T03:04:41.017Z,11.20
2018-11-12T03:07:16.215Z,11.20
2018-11-12T03:09:50.163Z,11.20
2018-11-12T03:12:23.946Z,11.20
2018-11-12T03:14:57.719Z,11.10
2018-11-12T03:17:31.578Z,11.00
2018-11-12T03:20:06.445Z,11.00
2018-11-12T03:22:41.342Z,11.00
2018-11-12T03:25:16.315Z,10.90
2018-11-12T03:27:51.191Z,10.90
2018-11-12T03:30:25.123Z,10.90
2018-11-12T03:32:58.920Z,10.90
2018-11-12T03:35:32.736Z,10.90
2018-11-12T03:38:08.585Z,10.80
2018-11-12T03:40:42.416Z,10.80
2018-11-12T03:43:16.205Z,10.70
2018-11-12T03:45:49.977Z,10.70
2018-11-12T03:48:23.797Z,10.70
2018-11-12T03:50:57.593Z,10.70
2018-11-12T03:53:32.484Z,10.70
2018-11-12T03:56:06.765Z,10.70
2018-11-12T03:58:40.548Z,10.70
2018-11-12T04:01:14.353Z,10.60
2018-11-12T04:03:51.141Z,10.60
2018-11-12T04:06:24.916Z,10.50
2018-11-12T04:08:58.660Z,10.60
2018-11-12T04:11:32.449Z,10.60
2018-11-12T04:14:08.121Z,10.60
2018-11-12T04:16:43.392Z,10.60
2018-11-12T04:19:17.221Z,10.60
2018-11-12T04:21:51.018Z,10.60
2018-11-12T04:24:26.841Z,10.60
2018-11-12T04:27:00.628Z,10.60
2018-11-12T04:29:35.513Z,10.60
2018-11-12T04:32:09.309Z,10.50
2018-11-12T04:34:44.096Z,10.50
2018-11-12T04:37:17.958Z,10.40
2018-11-12T04:39:52.737Z,10.40
2018-11-12T04:42:26.576Z,10.40
2018-11-12T04:45:01.361Z,10.30
2018-11-12T04:47:35.285Z,10.30
2018-11-12T04:50:16.492Z,10.30
2018-11-12T04:52:50.590Z,10.30
2018-11-12T04:55:25.875Z,10.30
2018-11-12T04:57:59.788Z,10.30
2018-11-12T05:00:33.672Z,10.30
2018-11-12T05:03:07.464Z,10.20
2018-11-12T05:05:42.317Z,10.20
2018-11-12T05:08:16.112Z,10.20
2018-11-12T05:10:54.332Z,10.20
2018-11-12T05:13:28.145Z,10.20
2018-11-12T05:16:02.968Z,10.30
2018-11-12T05:18:36.850Z,10.30
2018-11-12T05:21:16.147Z,10.30
2018-11-12T05:23:49.957Z,10.30
2018-11-12T05:26:24.855Z,10.30
2018-11-12T05:28:58.684Z,10.30
2018-11-12T05:31:35.722Z,10.30
2018-11-12T05:34:09.553Z,10.30
2018-11-12T05:36:43.458Z,10.30
2018-11-12T05:39:17.302Z,10.30
2018-11-12T05:41:53.744Z,10.30
2018-11-12T05:44:27.557Z,10.30
2018-11-12T05:47:02.372Z,10.30
2018-11-12T05:49:36.180Z,10.30
2018-11-12T05:52:10.993Z,10.30
2018-11-12T05:54:44.852Z,10.30
2018-11-12T05:57:20.733Z,10.30
2018-11-12T05:59:54.545Z,10.30
2018-11-12T06:02:29.386Z,10.20
2018-11-12T06:05:03.238Z,10.20
2018-11-12T06:07:43.583Z,10.20
2018-11-12T06:10:19.582Z,10.20
2018-11-12T06:12:55.469Z,10.20
2018-11-12T06:15:29.290Z,10.20
2018-11-12T06:18:04.161Z,10.30
2018-11-12T06:20:38.100Z,10.30
2018-11-12T06:23:15.854Z,10.30
2018-11-12T06:25:49.611Z,10.30
2018-11-12T06:28:23.403Z,10.40
2018-11-12T06:30:57.274Z,10.30
2018-11-12T06:33:32.257Z,10.30
2018-11-12T06:36:06.621Z,10.30
2018-11-12T06:38:45.506Z,10.20
2018-11-12T06:41:19.394Z,10.20
2018-11-12T06:43:58.409Z,10.20
2018-11-12T06:46:32.259Z,10.20
2018-11-12T06:49:10.394Z,10.10
2018-11-12T06:51:44.601Z,10.10
2018-11-12T06:54:22.532Z,10.10
2018-11-12T06:56:56.361Z,10.10
2018-11-12T06:59:32.413Z,10.10
2018-11-12T07:02:06.877Z,10.10
2018-11-12T07:04:53.282Z,10.10
2018-11-12T07:07:27.095Z,10.10
2018-11-12T07:10:07.707Z,10.10
2018-11-12T07:12:42.479Z,10.10
2018-11-12T07:15:20.833Z,10.10
2018-11-12T07:17:54.666Z,10.10
2018-11-12T07:20:30.555Z,10.10
2018-11-12T07:23:04.407Z,10.20
2018-11-12T07:25:42.220Z,10.20
2018-11-12T07:28:15.998Z,10.20
2018-11-12T07:30:57.548Z,10.20
2018-11-12T07:33:31.447Z,10.30
2018-11-12T07:36:10.869Z,10.40
2018-11-12T07:38:44.846Z,10.40
2018-11-12T07:41:42.282Z,10.40
2018-11-12T07:44:16.078Z,10.40
2018-11-12T07:49:48.958Z,10.50
2018-11-12T07:52:22.727Z,10.60
2018-11-12T07:55:14.092Z,10.60
2018-11-12T07:57:48.905Z,10.60
2018-11-12T08:00:31.799Z,10.60
2018-11-12T08:03:07.139Z,10.60
2018-11-12T08:05:45.222Z,10.60
2018-11-12T08:08:19.002Z,10.50
2018-11-12T08:10:53.896Z,10.60
2018-11-12T08:13:27.681Z,10.60
2018-11-12T08:16:05.715Z,10.60
2018-11-12T08:18:39.707Z,10.70
2018-11-12T08:21:15.665Z,10.70
2018-11-12T08:23:49.469Z,10.70
2018-11-12T08:26:24.290Z,10.70
2018-11-12T08:28:58.266Z,10.80
2018-11-12T08:31:33.183Z,10.80
2018-11-12T08:34:06.953Z,10.80
2018-11-12T08:36:42.901Z,10.80
2018-11-12T08:39:16.895Z,10.90
2018-11-12T08:41:50.866Z,10.90
2018-11-12T08:44:24.614Z,10.80
2018-11-12T08:49:55.970Z,10.80
2018-11-12T08:52:30.294Z,10.80
2018-11-12T08:55:05.556Z,10.80
2018-11-12T08:57:39.836Z,10.80
2018-11-12T09:00:14.849Z,10.80
2018-11-12T09:02:48.896Z,10.90
2018-11-12T09:05:25.095Z,10.90
2018-11-12T09:08:00.124Z,10.90
2018-11-12T09:10:35.253Z,10.90
2018-11-12T09:13:09.041Z,10.90
2018-11-12T09:15:42.855Z,10.90
2018-11-12T09:18:16.895Z,11.00
2018-11-12T09:20:50.662Z,11.00
2018-11-12T09:23:24.449Z,11.00
2018-11-12T09:25:58.265Z,11.00
2018-11-12T09:28:32.054Z,11.00
2018-11-12T09:31:07.890Z,11.00
2018-11-12T09:33:40.324Z,11.00
2018-11-12T09:36:14.152Z,11.00
2018-11-12T09:38:48.217Z,11.00
2018-11-12T09:41:22.401Z,11.00
2018-11-12T09:43:56.281Z,11.00
2018-11-12T09:46:30.048Z,11.00
2018-11-12T09:49:03.943Z,11.00
2018-11-12T09:51:38.885Z,11.00
2018-11-12T09:54:12.698Z,11.00
2018-11-12T09:56:46.704Z,11.00
2018-11-12T09:59:20.560Z,10.90
2018-11-12T10:01:55.317Z,10.90
2018-11-12T10:04:29.933Z,10.90
2018-11-12T10:07:11.154Z,10.90
2018-11-12T10:09:45.845Z,10.90
2018-11-12T10:12:38.532Z,10.90
2018-11-12T10:15:11.986Z,10.90
2018-11-12T10:17:47.849Z,10.90
2018-11-12T10:20:18.507Z,10.90
2018-11-12T10:22:52.991Z,10.90
2018-11-12T10:25:26.911Z,10.90
2018-11-12T10:28:10.447Z,11.00
2018-11-12T10:30:44.326Z,11.00
2018-11-12T10:33:19.995Z,11.00
2018-11-12T10:35:53.878Z,11.00
2018-11-12T10:38:27.912Z,11.00
2018-11-12T10:41:01.777Z,11.00
2018-11-12T10:43:37.126Z,11.00
2018-11-12T10:46:10.925Z,11.00
2018-11-12T10:48:44.840Z,11.00
2018-11-12T10:51:18.680Z,11.10
2018-11-12T10:53:58.333Z,11.10
2018-11-12T10:56:32.124Z,11.00
2018-11-12T10:59:08.694Z,11.00
2018-11-12T11:01:47.744Z,11.00
2018-11-12T11:04:27.879Z,11.00
2018-11-12T11:07:01.684Z,11.00
2018-11-12T11:09:35.714Z,11.00
2018-11-12T11:12:09.563Z,11.00
2018-11-12T11:14:43.444Z,11.00
2018-11-12T11:17:17.242Z,11.00
2018-11-12T11:19:51.213Z,10.90
2018-11-12T11:22:25.090Z,10.90
2018-11-12T11:24:59.331Z,10.90
2018-11-12T11:27:33.131Z,10.90
2018-11-12T11:30:10.340Z,10.90
2018-11-12T11:32:44.317Z,10.90
2018-11-12T11:35:19.162Z,10.90
2018-11-12T11:37:53.033Z,10.90
2018-11-12T11:40:27.652Z,10.90
2018-11-12T11:43:01.599Z,10.90
2018-11-12T11:45:36.872Z,10.90
2018-11-12T11:48:11.212Z,10.90
2018-11-12T11:50:45.144Z,10.90
2018-11-12T11:53:19.088Z,10.90
2018-11-12T11:55:53.237Z,10.90
2018-11-12T11:58:27.023Z,10.90
2018-11-12T12:01:01.086Z,10.90
2018-11-12T12:03:35.032Z,10.90
2018-11-12T12:06:10.295Z,10.90
2018-11-12T12:08:44.134Z,10.90
2018-11-12T12:11:18.518Z,11.00
2018-11-12T12:13:52.330Z,11.00
2018-11-12T12:16:26.222Z,11.00
2018-11-12T12:19:00.052Z,11.00
2018-11-12T12:21:33.938Z,11.10
2018-11-12T12:24:07.815Z,11.00
2018-11-12T12:26:42.237Z,11.10
2018-11-12T12:29:16.042Z,11.10
2018-11-12T12:31:51.877Z,11.10
2018-11-12T12:34:25.696Z,11.00
2018-11-12T12:36:59.654Z,11.00
2018-11-12T12:39:33.448Z,11.10
2018-11-12T12:42:07.366Z,11.10
2018-11-12T12:44:41.184Z,11.20
2018-11-12T12:47:15.691Z,11.40
2018-11-12T12:49:49.513Z,11.50
2018-11-12T12:52:24.835Z,11.60
2018-11-12T12:54:58.737Z,11.60
2018-11-12T12:57:33.115Z,11.70
2018-11-12T13:00:10.814Z,11.70
2018-11-12T13:02:56.768Z,11.90
2018-11-12T13:05:30.553Z,11.80
2018-11-12T13:08:05.754Z,11.70
2018-11-12T13:10:39.516Z,11.70
2018-11-12T13:13:13.606Z,11.80
2018-11-12T13:15:47.435Z,11.80
2018-11-12T13:18:21.838Z,11.70
2018-11-12T13:20:55.668Z,11.60
2018-11-12T13:23:29.968Z,11.60
2018-11-12T13:26:03.798Z,11.60
2018-11-12T13:28:37.690Z,11.70
2018-11-12T13:31:11.510Z,11.80
2018-11-12T13:33:45.281Z,11.80
2018-11-12T13:36:19.090Z,11.90
2018-11-12T13:38:53.948Z,11.80
2018-11-12T13:41:27.794Z,11.70
2018-11-12T13:44:01.646Z,11.70
2018-11-12T13:46:40.841Z,11.70
2018-11-12T13:49:14.625Z,11.70
2018-11-12T13:51:49.545Z,11.60
2018-11-12T13:54:23.270Z,11.50
2018-11-12T13:56:58.165Z,11.50
2018-11-12T13:59:31.930Z,11.50
2018-11-12T14:02:05.864Z,11.50
2018-11-12T14:04:39.692Z,11.50
2018-11-12T14:07:14.559Z,11.40
2018-11-12T14:09:48.430Z,11.40
2018-11-12T14:12:22.244Z,11.40
2018-11-12T14:14:56.063Z,11.40
2018-11-12T14:17:31.093Z,11.30
2018-11-12T14:20:05.582Z,11.30
2018-11-12T14:22:40.650Z,11.30
2018-11-12T14:25:15.582Z,11.30
2018-11-12T14:27:51.874Z,11.30
2018-11-12T14:30:29.969Z,11.30
2018-11-12T14:33:05.858Z,11.30
2018-11-12T14:35:39.866Z,11.30
2018-11-12T14:38:14.828Z,11.30
2018-11-12T14:40:48.609Z,11.30
2018-11-12T14:43:22.493Z,11.30
2018-11-12T14:45:56.251Z,11.30
2018-11-12T14:48:32.124Z,11.30
2018-11-12T14:51:06.566Z,11.40
2018-11-12T14:53:42.506Z,11.30
2018-11-12T14:56:16.250Z,11.30
2018-11-12T14:58:50.165Z,11.30
2018-11-12T15:01:23.962Z,11.40
2018-11-12T15:03:59.777Z,11.40
2018-11-12T15:06:33.527Z,11.40
2018-11-12T15:09:13.088Z,11.40
2018-11-12T15:11:48.557Z,11.40
2018-11-12T15:14:24.416Z,11.40
2018-11-12T15:16:58.153Z,11.40
2018-11-12T15:19:33.005Z,11.30
2018-11-12T15:22:07.125Z,11.30
2018-11-12T15:24:40.988Z,11.40
2018-11-12T15:27:14.761Z,11.30
2018-11-12T15:29:50.656Z,11.30
2018-11-12T15:32:24.477Z,11.30
2018-11-12T15:35:00.308Z,11.30
2018-11-12T15:37:34.103Z,11.40
2018-11-12T15:40:10.677Z,11.40
2018-11-12T15:42:44.428Z,11.40
2018-11-12T15:45:20.883Z,11.40
2018-11-12T15:47:54.665Z,11.50
2018-11-12T15:50:31.152Z,11.50
2018-11-12T15:53:05.028Z,11.50
2018-11-12T15:58:37.493Z,11.60
2018-11-12T16:01:11.292Z,11.60
2018-11-12T16:03:50.449Z,11.60
2018-11-12T16:06:24.623Z,11.60
2018-11-12T16:08:59.601Z,11.60
2018-11-12T16:11:33.397Z,11.70
2018-11-12T16:14:07.780Z,11.70
2018-11-12T16:16:41.576Z,11.70
2018-11-12T16:19:16.596Z,11.70
2018-11-12T16:21:50.504Z,11.70
2018-11-12T16:30:35.933Z,11.70
2018-11-12T16:33:09.742Z,11.70
2018-11-12T16:35:49.195Z,11.60
2018-11-12T16:38:23.059Z,11.70
2018-11-12T16:41:01.398Z,11.80
2018-11-12T16:43:35.176Z,11.80
2018-11-12T16:46:18.550Z,11.80
2018-11-12T16:48:52.372Z,11.80
2018-11-12T16:54:24.539Z,11.70
2018-11-12T16:56:58.324Z,11.70
2018-11-12T16:59:32.138Z,11.60
2018-11-12T17:02:06.569Z,11.60
2018-11-12T17:04:42.419Z,11.70
2018-11-12T17:07:16.283Z,11.60
2018-11-12T17:09:51.084Z,11.60
2018-11-12T17:12:24.951Z,11.60
2018-11-12T17:15:00.839Z,11.50
2018-11-12T17:17:34.673Z,11.50
2018-11-12T17:20:10.965Z,11.50
2018-11-12T17:22:44.696Z,11.50
2018-11-12T17:25:23.535Z,11.50
2018-11-12T17:27:57.326Z,11.50
2018-11-12T17:30:31.176Z,11.60
2018-11-12T17:33:05.305Z,11.70
2018-11-12T17:35:40.092Z,11.70
2018-11-12T17:38:13.835Z,11.70
2018-11-12T17:40:48.670Z,11.70
2018-11-12T17:43:22.458Z,11.80
2018-11-12T17:45:56.456Z,11.80
2018-11-12T17:48:30.250Z,11.80
2018-11-12T17:51:04.057Z,11.90
2018-11-12T17:53:37.852Z,11.90
2018-11-12T17:56:11.669Z,11.90
2018-11-12T17:58:45.438Z,12.00
2018-11-12T18:01:19.350Z,12.00
2018-11-12T18:03:53.458Z,12.00
2018-11-12T18:06:28.866Z,12.10
2018-11-12T18:09:03.058Z,12.10
2018-11-12T18:11:36.894Z,12.10
2018-11-12T18:14:11.732Z,12.10
2018-11-12T18:16:49.324Z,12.10
2018-11-12T18:19:23.661Z,12.20
2018-11-12T18:21:58.514Z,12.20
2018-11-12T18:24:32.394Z,12.20
2018-11-12T18:27:07.978Z,12.20
2018-11-12T18:29:42.289Z,12.20
2018-11-12T18:32:18.729Z,12.30
2018-11-12T18:34:52.481Z,12.30
2018-11-12T18:37:27.965Z,12.30
2018-11-12T18:40:02.309Z,12.30
2018-11-12T18:42:37.734Z,12.40
2018-11-12T18:45:13.828Z,12.40
2018-11-12T18:47:48.742Z,12.50
2018-11-12T18:50:23.906Z,12.60
2018-11-12T18:52:57.969Z,12.70
2018-11-12T18:55:31.745Z,12.70
2018-11-12T18:58:05.701Z,12.70
2018-11-12T19:00:39.804Z,12.70
2018-11-12T19:03:15.648Z,12.70
2018-11-12T19:05:49.386Z,12.60
2018-11-12T19:08:23.314Z,12.70
2018-11-12T19:10:57.259Z,12.60
2018-11-12T19:13:32.301Z,12.70
2018-11-12T19:16:06.942Z,12.70
2018-11-12T19:18:44.843Z,12.70
2018-11-12T19:21:18.663Z,12.80
2018-11-12T19:23:53.267Z,12.90
2018-11-12T19:26:27.035Z,12.90
2018-11-12T19:29:02.426Z,13.00
2018-11-12T19:31:36.835Z,13.00
2018-11-12T19:34:12.238Z,13.00
2018-11-12T19:36:46.553Z,13.10
2018-11-12T19:39:22.058Z,13.00
2018-11-12T19:41:56.447Z,13.10
2018-11-12T19:44:33.058Z,13.10
2018-11-12T19:47:07.441Z,13.00
2018-11-12T19:49:43.363Z,13.10
2018-11-12T19:52:17.785Z,13.00
2018-11-12T19:54:52.586Z,13.00
2018-11-12T19:57:27.003Z,13.00
2018-11-12T20:00:02.173Z,13.10
2018-11-12T20:02:36.537Z,13.20
2018-11-12T20:05:12.028Z,13.20
2018-11-12T20:07:46.411Z,13.20
2018-11-12T20:10:22.622Z,13.10
2018-11-12T20:12:57.103Z,13.00
2018-11-12T20:15:33.592Z,13.00
2018-11-12T20:18:08.183Z,12.90
2018-11-12T20:20:44.539Z,12.90
2018-11-12T20:23:18.888Z,12.80
2018-11-12T20:25:53.281Z,12.80
2018-11-12T20:28:27.649Z,12.70
2018-11-12T20:31:03.046Z,12.60
2018-11-12T20:33:37.372Z,12.60
2018-11-12T20:36:11.825Z,12.50
2018-11-12T20:38:46.195Z,12.50
2018-11-12T20:41:20.753Z,12.40
2018-11-12T20:43:55.112Z,12.40
2018-11-12T20:46:29.968Z,12.30
2018-11-12T20:49:03.810Z,12.30
2018-11-12T20:51:38.621Z,12.30
2018-11-12T20:54:12.984Z,12.30
2018-11-12T20:56:47.738Z,12.30
2018-11-12T20:59:21.604Z,12.30
2018-11-12T21:01:59.581Z,12.30
2018-11-12T21:04:33.377Z,12.30
2018-11-12T21:07:12.553Z,12.30
2018-11-12T21:09:46.350Z,12.30
2018-11-12T21:12:24.447Z,12.30
2018-11-12T21:14:58.989Z,12.30
2018-11-12T21:17:35.572Z,12.20
2018-11-12T21:20:11.594Z,12.00
2018-11-12T21:22:47.049Z,11.90
2018-11-12T21:25:22.136Z,11.80
2018-11-12T21:27:59.128Z,11.70
2018-11-12T21:30:32.924Z,11.60
2018-11-12T21:33:06.748Z,11.50
2018-11-12T21:35:40.520Z,11.40
2018-11-12T21:38:14.421Z,11.40
2018-11-12T21:40:48.198Z,11.30
2018-11-12T21:43:23.134Z,11.30
2018-11-12T21:45:57.046Z,11.30
2018-11-12T21:48:31.861Z,11.20
2018-11-12T21:51:05.900Z,11.20
2018-11-12T21:53:39.749Z,11.10
2018-11-12T21:56:13.605Z,11.10
2018-11-12T21:58:48.592Z,11.10
2018-11-12T22:01:22.463Z,11.10
2018-11-12T22:03:56.349Z,11.00
2018-11-12T22:06:30.117Z,11.00
2018-11-12T22:09:06.284Z,11.00
2018-11-12T22:11:40.475Z,11.00
2018-11-12T22:14:16.288Z,11.00
2018-11-12T22:16:50.176Z,11.00
2018-11-12T22:19:25.298Z,11.10
2018-11-12T22:21:59.059Z,11.00
2018-11-12T22:24:32.925Z,11.10
2018-11-12T22:27:07.647Z,11.10
2018-11-12T22:53:25.329Z,11.20
2018-11-12T22:55:59.326Z,11.20
2018-11-12T22:58:33.118Z,11.20
2018-11-12T23:36:44.344Z,11.10
2018-11-12T23:39:18.096Z,11.10
2018-11-12T23:41:52.960Z,11.10
2018-11-12T23:44:26.769Z,11.10
2018-11-12T23:47:00.594Z,11.10
2018-11-12T23:49:34.483Z,11.10
2018-11-12T23:52:09.387Z,11.10
2018-11-12T23:54:43.149Z,11.10
2018-11-12T23:57:18.090Z,11.10
2018-11-12T23:59:51.859Z,11.10
